sensor_id;sensor_type;location;lat;lon;timestamp;P1;durP1;ratioP1;P2;durP2;ratioP2
46777;SDS011;32536;47.128;8.746;2023-06-24T00:01:45;3.40;;;1.63;;
46777;SDS011;32536;47.128;8.746;2023-06-24T00:04:12;4.00;;;1.90;;
46777;SDS011;32536;47.128;8.746;2023-06-24T00:06:40;4.25;;;2.03;;
46777;SDS011;32536;47.128;8.746;2023-06-24T00:09:07;5.18;;;1.40;;
46777;SDS011;32536;47.128;8.746;2023-06-24T00:11:34;3.78;;;2.03;;
46777;SDS011;32536;47.128;8.746;2023-06-24T00:14:01;4.15;;;1.63;;
46777;SDS011;32536;47.128;8.746;2023-06-24T00:16:27;2.92;;;1.40;;
46777;SDS011;32536;47.128;8.746;2023-06-24T00:18:54;3.05;;;1.30;;
46777;SDS011;32536;47.128;8.746;2023-06-24T00:21:26;2.53;;;1.10;;
46777;SDS011;32536;47.128;8.746;2023-06-24T00:23:57;2.50;;;1.17;;
46777;SDS011;32536;47.128;8.746;2023-06-24T00:26:30;2.42;;;0.88;;
46777;SDS011;32536;47.128;8.746;2023-06-24T00:29:00;2.88;;;1.48;;
46777;SDS011;32536;47.128;8.746;2023-06-24T00:31:26;3.40;;;1.67;;
46777;SDS011;32536;47.128;8.746;2023-06-24T00:33:53;3.60;;;1.65;;
46777;SDS011;32536;47.128;8.746;2023-06-24T00:36:20;4.80;;;3.22;;
46777;SDS011;32536;47.128;8.746;2023-06-24T00:38:47;4.68;;;2.47;;
46777;SDS011;32536;47.128;8.746;2023-06-24T00:41:17;3.35;;;1.40;;
46777;SDS011;32536;47.128;8.746;2023-06-24T00:43:44;3.85;;;2.13;;
46777;SDS011;32536;47.128;8.746;2023-06-24T00:46:11;4.25;;;2.20;;
46777;SDS011;32536;47.128;8.746;2023-06-24T00:48:39;3.95;;;1.98;;
46777;SDS011;32536;47.128;8.746;2023-06-24T00:51:06;3.70;;;1.88;;
46777;SDS011;32536;47.128;8.746;2023-06-24T00:53:32;3.10;;;1.40;;
46777;SDS011;32536;47.128;8.746;2023-06-24T00:55:59;3.15;;;1.48;;
46777;SDS011;32536;47.128;8.746;2023-06-24T00:58:28;3.05;;;1.35;;
46777;SDS011;32536;47.128;8.746;2023-06-24T01:00:57;4.70;;;3.00;;
46777;SDS011;32536;47.128;8.746;2023-06-24T01:03:24;4.18;;;2.08;;
46777;SDS011;32536;47.128;8.746;2023-06-24T01:05:52;3.83;;;1.83;;
46777;SDS011;32536;47.128;8.746;2023-06-24T01:08:20;4.22;;;1.83;;
46777;SDS011;32536;47.128;8.746;2023-06-24T01:10:49;2.92;;;1.27;;
46777;SDS011;32536;47.128;8.746;2023-06-24T01:13:16;3.42;;;1.70;;
46777;SDS011;32536;47.128;8.746;2023-06-24T01:15:44;4.15;;;2.20;;
46777;SDS011;32536;47.128;8.746;2023-06-24T01:18:34;3.80;;;1.63;;
46777;SDS011;32536;47.128;8.746;2023-06-24T01:30:17;4.38;;;2.53;;
46777;SDS011;32536;47.128;8.746;2023-06-24T01:32:57;4.43;;;2.40;;
46777;SDS011;32536;47.128;8.746;2023-06-24T01:35:30;3.72;;;1.58;;
46777;SDS011;32536;47.128;8.746;2023-06-24T01:38:01;3.65;;;1.70;;
46777;SDS011;32536;47.128;8.746;2023-06-24T01:40:37;4.03;;;1.80;;
46777;SDS011;32536;47.128;8.746;2023-06-24T01:43:08;4.07;;;2.63;;
46777;SDS011;32536;47.128;8.746;2023-06-24T01:45:42;4.25;;;2.05;;
46777;SDS011;32536;47.128;8.746;2023-06-24T01:48:15;2.97;;;1.45;;
46777;SDS011;32536;47.128;8.746;2023-06-24T01:50:55;3.50;;;1.55;;
46777;SDS011;32536;47.128;8.746;2023-06-24T01:53:28;3.33;;;1.55;;
46777;SDS011;32536;47.128;8.746;2023-06-24T01:56:04;3.45;;;1.45;;
46777;SDS011;32536;47.128;8.746;2023-06-24T01:58:34;5.45;;;2.25;;
46777;SDS011;32536;47.128;8.746;2023-06-24T02:01:02;3.22;;;1.60;;
46777;SDS011;32536;47.128;8.746;2023-06-24T02:03:31;3.08;;;1.40;;
46777;SDS011;32536;47.128;8.746;2023-06-24T02:06:00;4.07;;;2.03;;
46777;SDS011;32536;47.128;8.746;2023-06-24T02:08:29;2.65;;;1.17;;
46777;SDS011;32536;47.128;8.746;2023-06-24T02:10:59;3.33;;;2.22;;
46777;SDS011;32536;47.128;8.746;2023-06-24T02:13:29;4.53;;;1.83;;
46777;SDS011;32536;47.128;8.746;2023-06-24T02:16:04;4.38;;;2.60;;
46777;SDS011;32536;47.128;8.746;2023-06-24T02:18:34;3.55;;;1.63;;
46777;SDS011;32536;47.128;8.746;2023-06-24T02:21:04;3.08;;;1.45;;
46777;SDS011;32536;47.128;8.746;2023-06-24T02:23:32;4.32;;;2.95;;
46777;SDS011;32536;47.128;8.746;2023-06-24T02:26:01;4.40;;;1.85;;
46777;SDS011;32536;47.128;8.746;2023-06-24T02:28:29;2.65;;;1.23;;
46777;SDS011;32536;47.128;8.746;2023-06-24T02:30:57;3.70;;;1.15;;
46777;SDS011;32536;47.128;8.746;2023-06-24T02:33:25;2.55;;;1.13;;
46777;SDS011;32536;47.128;8.746;2023-06-24T02:35:52;2.97;;;1.60;;
46777;SDS011;32536;47.128;8.746;2023-06-24T02:38:19;3.28;;;1.65;;
46777;SDS011;32536;47.128;8.746;2023-06-24T02:40:46;3.55;;;1.38;;
46777;SDS011;32536;47.128;8.746;2023-06-24T02:43:13;4.00;;;2.10;;
46777;SDS011;32536;47.128;8.746;2023-06-24T02:45:40;3.65;;;1.92;;
46777;SDS011;32536;47.128;8.746;2023-06-24T02:48:08;2.90;;;1.48;;
46777;SDS011;32536;47.128;8.746;2023-06-24T02:50:36;3.88;;;1.58;;
46777;SDS011;32536;47.128;8.746;2023-06-24T02:53:05;3.13;;;1.50;;
46777;SDS011;32536;47.128;8.746;2023-06-24T02:55:42;3.58;;;2.13;;
46777;SDS011;32536;47.128;8.746;2023-06-24T02:58:09;4.40;;;2.10;;
46777;SDS011;32536;47.128;8.746;2023-06-24T03:00:36;4.80;;;2.03;;
46777;SDS011;32536;47.128;8.746;2023-06-24T03:03:04;3.00;;;1.60;;
46777;SDS011;32536;47.128;8.746;2023-06-24T03:05:32;2.75;;;1.42;;
46777;SDS011;32536;47.128;8.746;2023-06-24T03:08:00;4.60;;;2.08;;
46777;SDS011;32536;47.128;8.746;2023-06-24T03:10:29;4.03;;;1.95;;
46777;SDS011;32536;47.128;8.746;2023-06-24T03:12:56;4.50;;;2.13;;
46777;SDS011;32536;47.128;8.746;2023-06-24T03:15:23;3.80;;;1.70;;
46777;SDS011;32536;47.128;8.746;2023-06-24T03:17:50;3.65;;;1.35;;
46777;SDS011;32536;47.128;8.746;2023-06-24T03:20:17;4.22;;;2.25;;
46777;SDS011;32536;47.128;8.746;2023-06-24T03:22:44;3.03;;;1.48;;
46777;SDS011;32536;47.128;8.746;2023-06-24T03:25:10;3.50;;;1.60;;
46777;SDS011;32536;47.128;8.746;2023-06-24T03:27:37;3.78;;;1.52;;
46777;SDS011;32536;47.128;8.746;2023-06-24T03:30:04;2.30;;;1.00;;
46777;SDS011;32536;47.128;8.746;2023-06-24T03:32:31;2.63;;;1.23;;
46777;SDS011;32536;47.128;8.746;2023-06-24T03:35:00;3.10;;;1.17;;
46777;SDS011;32536;47.128;8.746;2023-06-24T03:37:28;4.45;;;1.45;;
46777;SDS011;32536;47.128;8.746;2023-06-24T03:39:55;2.25;;;1.20;;
46777;SDS011;32536;47.128;8.746;2023-06-24T03:42:22;3.90;;;2.05;;
46777;SDS011;32536;47.128;8.746;2023-06-24T03:44:49;3.55;;;1.85;;
46777;SDS011;32536;47.128;8.746;2023-06-24T03:47:16;2.75;;;1.40;;
46777;SDS011;32536;47.128;8.746;2023-06-24T03:49:43;2.60;;;1.33;;
46777;SDS011;32536;47.128;8.746;2023-06-24T03:52:09;2.38;;;1.23;;
46777;SDS011;32536;47.128;8.746;2023-06-24T03:54:36;2.97;;;1.42;;
46777;SDS011;32536;47.128;8.746;2023-06-24T03:57:04;3.22;;;1.35;;
46777;SDS011;32536;47.128;8.746;2023-06-24T03:59:32;2.65;;;1.50;;
46777;SDS011;32536;47.128;8.746;2023-06-24T04:01:58;3.50;;;1.63;;
46777;SDS011;32536;47.128;8.746;2023-06-24T04:04:25;4.05;;;1.90;;
46777;SDS011;32536;47.128;8.746;2023-06-24T04:06:52;3.90;;;1.70;;
46777;SDS011;32536;47.128;8.746;2023-06-24T04:09:19;4.05;;;1.95;;
46777;SDS011;32536;47.128;8.746;2023-06-24T04:11:47;3.85;;;1.95;;
46777;SDS011;32536;47.128;8.746;2023-06-24T04:14:13;3.95;;;1.90;;
46777;SDS011;32536;47.128;8.746;2023-06-24T04:16:40;3.38;;;1.73;;
46777;SDS011;32536;47.128;8.746;2023-06-24T04:19:07;3.17;;;1.48;;
46777;SDS011;32536;47.128;8.746;2023-06-24T04:21:33;5.13;;;2.33;;
46777;SDS011;32536;47.128;8.746;2023-06-24T04:24:00;4.35;;;3.15;;
46777;SDS011;32536;47.128;8.746;2023-06-24T04:26:27;4.85;;;2.30;;
46777;SDS011;32536;47.128;8.746;2023-06-24T04:28:53;3.60;;;1.80;;
46777;SDS011;32536;47.128;8.746;2023-06-24T04:31:20;3.75;;;1.70;;
46777;SDS011;32536;47.128;8.746;2023-06-24T04:33:47;4.57;;;1.83;;
46777;SDS011;32536;47.128;8.746;2023-06-24T04:36:14;3.20;;;1.55;;
46777;SDS011;32536;47.128;8.746;2023-06-24T04:38:41;4.03;;;2.05;;
46777;SDS011;32536;47.128;8.746;2023-06-24T04:41:08;3.47;;;1.70;;
46777;SDS011;32536;47.128;8.746;2023-06-24T04:43:35;4.55;;;2.60;;
46777;SDS011;32536;47.128;8.746;2023-06-24T04:46:01;4.90;;;2.47;;
46777;SDS011;32536;47.128;8.746;2023-06-24T04:48:28;3.60;;;1.63;;
46777;SDS011;32536;47.128;8.746;2023-06-24T04:50:55;2.97;;;1.45;;
46777;SDS011;32536;47.128;8.746;2023-06-24T04:53:23;3.20;;;1.40;;
46777;SDS011;32536;47.128;8.746;2023-06-24T04:55:50;1.70;;;0.70;;
46777;SDS011;32536;47.128;8.746;2023-06-24T04:58:17;2.85;;;1.17;;
46777;SDS011;32536;47.128;8.746;2023-06-24T05:00:43;4.30;;;1.90;;
46777;SDS011;32536;47.128;8.746;2023-06-24T05:03:10;4.28;;;2.17;;
46777;SDS011;32536;47.128;8.746;2023-06-24T05:05:37;3.88;;;1.83;;
46777;SDS011;32536;47.128;8.746;2023-06-24T05:08:03;3.40;;;1.52;;
46777;SDS011;32536;47.128;8.746;2023-06-24T05:10:30;4.88;;;2.13;;
46777;SDS011;32536;47.128;8.746;2023-06-24T05:12:57;3.92;;;1.85;;
46777;SDS011;32536;47.128;8.746;2023-06-24T05:15:23;3.55;;;1.80;;
46777;SDS011;32536;47.128;8.746;2023-06-24T05:17:50;3.33;;;1.67;;
46777;SDS011;32536;47.128;8.746;2023-06-24T05:20:17;4.55;;;2.28;;
46777;SDS011;32536;47.128;8.746;2023-06-24T05:22:43;4.20;;;2.65;;
46777;SDS011;32536;47.128;8.746;2023-06-24T05:25:10;4.90;;;1.85;;
46777;SDS011;32536;47.128;8.746;2023-06-24T05:27:37;3.92;;;2.08;;
46777;SDS011;32536;47.128;8.746;2023-06-24T05:30:04;3.83;;;1.73;;
46777;SDS011;32536;47.128;8.746;2023-06-24T05:32:31;4.50;;;2.78;;
46777;SDS011;32536;47.128;8.746;2023-06-24T05:34:58;4.20;;;2.45;;
46777;SDS011;32536;47.128;8.746;2023-06-24T05:37:25;4.00;;;2.03;;
46777;SDS011;32536;47.128;8.746;2023-06-24T05:39:52;4.03;;;1.80;;
46777;SDS011;32536;47.128;8.746;2023-06-24T05:42:18;4.43;;;2.30;;
46777;SDS011;32536;47.128;8.746;2023-06-24T05:44:45;3.95;;;1.98;;
46777;SDS011;32536;47.128;8.746;2023-06-24T05:47:12;4.35;;;2.00;;
46777;SDS011;32536;47.128;8.746;2023-06-24T05:49:38;4.47;;;1.98;;
46777;SDS011;32536;47.128;8.746;2023-06-24T05:52:05;3.58;;;1.50;;
46777;SDS011;32536;47.128;8.746;2023-06-24T05:54:32;2.72;;;1.20;;
46777;SDS011;32536;47.128;8.746;2023-06-24T05:56:59;2.40;;;1.55;;
46777;SDS011;32536;47.128;8.746;2023-06-24T05:59:26;2.47;;;1.10;;
46777;SDS011;32536;47.128;8.746;2023-06-24T06:01:52;3.72;;;1.83;;
46777;SDS011;32536;47.128;8.746;2023-06-24T06:04:19;3.60;;;1.30;;
46777;SDS011;32536;47.128;8.746;2023-06-24T06:06:46;2.75;;;1.15;;
46777;SDS011;32536;47.128;8.746;2023-06-24T06:09:12;2.50;;;1.23;;
46777;SDS011;32536;47.128;8.746;2023-06-24T06:11:39;2.17;;;1.27;;
46777;SDS011;32536;47.128;8.746;2023-06-24T06:14:06;2.35;;;1.40;;
46777;SDS011;32536;47.128;8.746;2023-06-24T06:16:32;2.25;;;1.13;;
46777;SDS011;32536;47.128;8.746;2023-06-24T06:18:59;3.83;;;2.03;;
46777;SDS011;32536;47.128;8.746;2023-06-24T06:21:26;3.05;;;1.05;;
46777;SDS011;32536;47.128;8.746;2023-06-24T06:23:52;2.63;;;1.17;;
46777;SDS011;32536;47.128;8.746;2023-06-24T06:26:19;3.30;;;1.98;;
46777;SDS011;32536;47.128;8.746;2023-06-24T06:28:46;2.10;;;1.00;;
46777;SDS011;32536;47.128;8.746;2023-06-24T06:31:13;2.13;;;0.93;;
46777;SDS011;32536;47.128;8.746;2023-06-24T06:33:41;2.42;;;0.95;;
46777;SDS011;32536;47.128;8.746;2023-06-24T06:36:09;3.63;;;1.17;;
46777;SDS011;32536;47.128;8.746;2023-06-24T06:38:35;2.53;;;1.20;;
46777;SDS011;32536;47.128;8.746;2023-06-24T06:41:02;2.85;;;1.48;;
46777;SDS011;32536;47.128;8.746;2023-06-24T06:43:29;3.00;;;1.40;;
46777;SDS011;32536;47.128;8.746;2023-06-24T06:45:55;2.40;;;0.80;;
46777;SDS011;32536;47.128;8.746;2023-06-24T06:48:22;2.25;;;1.05;;
46777;SDS011;32536;47.128;8.746;2023-06-24T06:50:49;3.13;;;1.25;;
46777;SDS011;32536;47.128;8.746;2023-06-24T06:53:18;3.05;;;1.38;;
46777;SDS011;32536;47.128;8.746;2023-06-24T06:55:57;3.10;;;1.45;;
46777;SDS011;32536;47.128;8.746;2023-06-24T06:58:24;3.95;;;2.20;;
46777;SDS011;32536;47.128;8.746;2023-06-24T07:00:51;3.95;;;1.83;;
46777;SDS011;32536;47.128;8.746;2023-06-24T07:03:18;4.45;;;1.80;;
46777;SDS011;32536;47.128;8.746;2023-06-24T07:05:44;3.78;;;2.28;;
46777;SDS011;32536;47.128;8.746;2023-06-24T07:08:12;4.15;;;2.08;;
46777;SDS011;32536;47.128;8.746;2023-06-24T07:10:38;4.25;;;2.08;;
46777;SDS011;32536;47.128;8.746;2023-06-24T07:13:05;4.88;;;2.42;;
46777;SDS011;32536;47.128;8.746;2023-06-24T07:15:32;5.70;;;3.33;;
46777;SDS011;32536;47.128;8.746;2023-06-24T07:17:58;5.43;;;2.63;;
46777;SDS011;32536;47.128;8.746;2023-06-24T07:20:25;5.78;;;3.67;;
46777;SDS011;32536;47.128;8.746;2023-06-24T07:22:52;4.65;;;2.33;;
46777;SDS011;32536;47.128;8.746;2023-06-24T07:25:18;4.18;;;2.10;;
46777;SDS011;32536;47.128;8.746;2023-06-24T07:27:45;4.80;;;3.20;;
46777;SDS011;32536;47.128;8.746;2023-06-24T07:30:12;5.43;;;2.42;;
46777;SDS011;32536;47.128;8.746;2023-06-24T07:32:39;4.13;;;2.10;;
46777;SDS011;32536;47.128;8.746;2023-06-24T07:35:05;4.47;;;2.08;;
46777;SDS011;32536;47.128;8.746;2023-06-24T07:37:33;4.95;;;2.42;;
46777;SDS011;32536;47.128;8.746;2023-06-24T07:40:01;4.68;;;2.65;;
46777;SDS011;32536;47.128;8.746;2023-06-24T07:42:29;4.82;;;2.60;;
46777;SDS011;32536;47.128;8.746;2023-06-24T07:44:56;4.80;;;2.42;;
46777;SDS011;32536;47.128;8.746;2023-06-24T07:47:22;5.57;;;3.30;;
46777;SDS011;32536;47.128;8.746;2023-06-24T07:49:49;4.88;;;2.67;;
46777;SDS011;32536;47.128;8.746;2023-06-24T07:52:16;4.80;;;2.58;;
46777;SDS011;32536;47.128;8.746;2023-06-24T07:54:42;6.38;;;2.95;;
46777;SDS011;32536;47.128;8.746;2023-06-24T07:57:09;4.93;;;2.70;;
46777;SDS011;32536;47.128;8.746;2023-06-24T07:59:36;4.53;;;2.33;;
46777;SDS011;32536;47.128;8.746;2023-06-24T08:02:03;5.32;;;2.70;;
46777;SDS011;32536;47.128;8.746;2023-06-24T08:04:29;6.22;;;2.47;;
46777;SDS011;32536;47.128;8.746;2023-06-24T08:06:56;6.65;;;4.25;;
46777;SDS011;32536;47.128;8.746;2023-06-24T08:09:23;5.88;;;3.30;;
46777;SDS011;32536;47.128;8.746;2023-06-24T08:11:50;5.15;;;2.90;;
46777;SDS011;32536;47.128;8.746;2023-06-24T08:14:16;4.85;;;2.75;;
46777;SDS011;32536;47.128;8.746;2023-06-24T08:16:43;5.68;;;2.90;;
46777;SDS011;32536;47.128;8.746;2023-06-24T08:19:10;5.65;;;2.53;;
46777;SDS011;32536;47.128;8.746;2023-06-24T08:21:36;4.97;;;2.97;;
46777;SDS011;32536;47.128;8.746;2023-06-24T08:24:04;5.70;;;3.30;;
46777;SDS011;32536;47.128;8.746;2023-06-24T08:26:31;5.95;;;3.35;;
46777;SDS011;32536;47.128;8.746;2023-06-24T08:28:58;5.80;;;3.30;;
46777;SDS011;32536;47.128;8.746;2023-06-24T08:31:25;5.88;;;2.83;;
46777;SDS011;32536;47.128;8.746;2023-06-24T08:33:52;5.20;;;3.95;;
46777;SDS011;32536;47.128;8.746;2023-06-24T08:36:22;6.10;;;2.65;;
46777;SDS011;32536;47.128;8.746;2023-06-24T08:38:51;5.70;;;2.45;;
46777;SDS011;32536;47.128;8.746;2023-06-24T08:41:18;6.15;;;3.78;;
46777;SDS011;32536;47.128;8.746;2023-06-24T08:43:45;5.13;;;2.72;;
46777;SDS011;32536;47.128;8.746;2023-06-24T08:46:12;5.78;;;3.50;;
46777;SDS011;32536;47.128;8.746;2023-06-24T08:48:42;6.47;;;3.28;;
46777;SDS011;32536;47.128;8.746;2023-06-24T08:51:11;5.68;;;3.35;;
46777;SDS011;32536;47.128;8.746;2023-06-24T08:53:44;6.15;;;4.07;;
46777;SDS011;32536;47.128;8.746;2023-06-24T08:56:13;5.50;;;3.45;;
46777;SDS011;32536;47.128;8.746;2023-06-24T08:58:40;5.20;;;2.85;;
46777;SDS011;32536;47.128;8.746;2023-06-24T09:01:07;5.88;;;3.00;;
46777;SDS011;32536;47.128;8.746;2023-06-24T09:03:35;5.72;;;3.33;;
46777;SDS011;32536;47.128;8.746;2023-06-24T09:06:02;4.95;;;2.30;;
46777;SDS011;32536;47.128;8.746;2023-06-24T09:08:28;5.10;;;3.33;;
46777;SDS011;32536;47.128;8.746;2023-06-24T09:10:55;5.53;;;3.17;;
46777;SDS011;32536;47.128;8.746;2023-06-24T09:13:27;4.95;;;2.92;;
46777;SDS011;32536;47.128;8.746;2023-06-24T09:16:14;5.15;;;2.92;;
46777;SDS011;32536;47.128;8.746;2023-06-24T09:18:41;5.65;;;3.05;;
46777;SDS011;32536;47.128;8.746;2023-06-24T09:21:21;5.93;;;2.72;;
46777;SDS011;32536;47.128;8.746;2023-06-24T09:23:52;5.82;;;3.25;;
46777;SDS011;32536;47.128;8.746;2023-06-24T09:26:22;4.82;;;2.33;;
46777;SDS011;32536;47.128;8.746;2023-06-24T09:28:50;6.38;;;2.97;;
46777;SDS011;32536;47.128;8.746;2023-06-24T09:31:18;4.75;;;2.13;;
46777;SDS011;32536;47.128;8.746;2023-06-24T09:33:45;6.28;;;3.80;;
46777;SDS011;32536;47.128;8.746;2023-06-24T09:36:14;5.47;;;2.92;;
46777;SDS011;32536;47.128;8.746;2023-06-24T09:38:42;4.93;;;2.55;;
46777;SDS011;32536;47.128;8.746;2023-06-24T09:41:10;6.03;;;3.65;;
46777;SDS011;32536;47.128;8.746;2023-06-24T09:43:41;6.28;;;4.13;;
46777;SDS011;32536;47.128;8.746;2023-06-24T09:46:10;6.28;;;3.03;;
46777;SDS011;32536;47.128;8.746;2023-06-24T09:48:37;4.95;;;3.17;;
46777;SDS011;32536;47.128;8.746;2023-06-24T09:51:04;4.50;;;2.08;;
46777;SDS011;32536;47.128;8.746;2023-06-24T09:53:32;5.22;;;2.83;;
46777;SDS011;32536;47.128;8.746;2023-06-24T09:56:09;5.75;;;3.38;;
46777;SDS011;32536;47.128;8.746;2023-06-24T09:58:37;4.97;;;2.85;;
46777;SDS011;32536;47.128;8.746;2023-06-24T10:01:07;6.28;;;3.97;;
46777;SDS011;32536;47.128;8.746;2023-06-24T10:03:37;4.75;;;2.63;;
46777;SDS011;32536;47.128;8.746;2023-06-24T10:06:05;5.55;;;3.42;;
46777;SDS011;32536;47.128;8.746;2023-06-24T10:08:33;6.68;;;2.80;;
46777;SDS011;32536;47.128;8.746;2023-06-24T10:11:00;5.40;;;3.92;;
46777;SDS011;32536;47.128;8.746;2023-06-24T10:13:27;5.90;;;3.40;;
46777;SDS011;32536;47.128;8.746;2023-06-24T10:15:55;5.93;;;3.55;;
46777;SDS011;32536;47.128;8.746;2023-06-24T10:18:32;5.28;;;3.30;;
46777;SDS011;32536;47.128;8.746;2023-06-24T10:21:01;6.40;;;3.38;;
46777;SDS011;32536;47.128;8.746;2023-06-24T10:23:39;5.15;;;2.80;;
46777;SDS011;32536;47.128;8.746;2023-06-24T10:26:11;4.55;;;2.20;;
46777;SDS011;32536;47.128;8.746;2023-06-24T10:47:39;4.88;;;2.72;;
46777;SDS011;32536;47.128;8.746;2023-06-24T10:50:12;4.47;;;2.30;;
46777;SDS011;32536;47.128;8.746;2023-06-24T10:52:42;5.55;;;3.38;;
46777;SDS011;32536;47.128;8.746;2023-06-24T10:55:13;5.80;;;3.25;;
46777;SDS011;32536;47.128;8.746;2023-06-24T10:58:12;5.65;;;3.25;;
46777;SDS011;32536;47.128;8.746;2023-06-24T11:00:41;5.32;;;3.45;;
46777;SDS011;32536;47.128;8.746;2023-06-24T11:03:13;4.80;;;3.28;;
46777;SDS011;32536;47.128;8.746;2023-06-24T11:05:41;4.00;;;1.85;;
46777;SDS011;32536;47.128;8.746;2023-06-24T11:08:10;3.70;;;1.95;;
46777;SDS011;32536;47.128;8.746;2023-06-24T11:10:46;4.72;;;2.33;;
46777;SDS011;32536;47.128;8.746;2023-06-24T11:13:14;4.97;;;3.58;;
46777;SDS011;32536;47.128;8.746;2023-06-24T11:15:41;3.88;;;1.95;;
46777;SDS011;32536;47.128;8.746;2023-06-24T11:18:08;4.32;;;3.00;;
46777;SDS011;32536;47.128;8.746;2023-06-24T11:20:39;3.80;;;1.77;;
46777;SDS011;32536;47.128;8.746;2023-06-24T11:23:07;4.07;;;2.63;;
46777;SDS011;32536;47.128;8.746;2023-06-24T11:25:40;3.95;;;2.58;;
46777;SDS011;32536;47.128;8.746;2023-06-24T11:28:16;4.78;;;2.67;;
46777;SDS011;32536;47.128;8.746;2023-06-24T11:30:44;4.65;;;2.72;;
46777;SDS011;32536;47.128;8.746;2023-06-24T11:33:11;4.45;;;2.33;;
46777;SDS011;32536;47.128;8.746;2023-06-24T11:35:37;4.95;;;3.65;;
46777;SDS011;32536;47.128;8.746;2023-06-24T11:38:04;5.35;;;2.63;;
46777;SDS011;32536;47.128;8.746;2023-06-24T11:40:31;4.53;;;2.45;;
46777;SDS011;32536;47.128;8.746;2023-06-24T11:43:00;5.38;;;2.55;;
46777;SDS011;32536;47.128;8.746;2023-06-24T11:45:27;4.93;;;2.45;;
46777;SDS011;32536;47.128;8.746;2023-06-24T11:48:00;4.75;;;2.40;;
46777;SDS011;32536;47.128;8.746;2023-06-24T11:50:30;5.50;;;3.35;;
46777;SDS011;32536;47.128;8.746;2023-06-24T11:52:57;5.28;;;3.00;;
46777;SDS011;32536;47.128;8.746;2023-06-24T11:55:25;4.80;;;2.45;;
46777;SDS011;32536;47.128;8.746;2023-06-24T11:58:02;3.67;;;1.83;;
46777;SDS011;32536;47.128;8.746;2023-06-24T12:00:31;4.82;;;2.42;;
46777;SDS011;32536;47.128;8.746;2023-06-24T12:05:31;5.97;;;2.78;;
46777;SDS011;32536;47.128;8.746;2023-06-24T12:08:04;4.82;;;2.55;;
46777;SDS011;32536;47.128;8.746;2023-06-24T12:10:36;5.30;;;3.70;;
46777;SDS011;32536;47.128;8.746;2023-06-24T12:13:04;3.30;;;1.42;;
46777;SDS011;32536;47.128;8.746;2023-06-24T12:15:34;4.63;;;2.67;;
46777;SDS011;32536;47.128;8.746;2023-06-24T12:18:01;4.82;;;2.80;;
46777;SDS011;32536;47.128;8.746;2023-06-24T12:20:29;4.45;;;2.10;;
46777;SDS011;32536;47.128;8.746;2023-06-24T12:22:56;4.85;;;2.97;;
46777;SDS011;32536;47.128;8.746;2023-06-24T12:25:23;4.57;;;2.35;;
46777;SDS011;32536;47.128;8.746;2023-06-24T12:27:50;4.38;;;1.95;;
46777;SDS011;32536;47.128;8.746;2023-06-24T12:30:17;5.38;;;2.42;;
46777;SDS011;32536;47.128;8.746;2023-06-24T12:32:43;5.50;;;3.05;;
46777;SDS011;32536;47.128;8.746;2023-06-24T12:35:10;4.30;;;1.98;;
46777;SDS011;32536;47.128;8.746;2023-06-24T12:37:37;5.15;;;2.05;;
46777;SDS011;32536;47.128;8.746;2023-06-24T12:40:04;4.45;;;2.00;;
46777;SDS011;32536;47.128;8.746;2023-06-24T12:42:32;3.83;;;2.47;;
46777;SDS011;32536;47.128;8.746;2023-06-24T12:44:59;3.65;;;1.67;;
46777;SDS011;32536;47.128;8.746;2023-06-24T12:47:26;3.90;;;1.75;;
46777;SDS011;32536;47.128;8.746;2023-06-24T12:49:53;3.80;;;1.65;;
46777;SDS011;32536;47.128;8.746;2023-06-24T12:52:19;4.40;;;2.03;;
46777;SDS011;32536;47.128;8.746;2023-06-24T12:54:46;3.92;;;1.75;;
46777;SDS011;32536;47.128;8.746;2023-06-24T12:57:14;4.18;;;2.20;;
46777;SDS011;32536;47.128;8.746;2023-06-24T12:59:41;4.65;;;2.33;;
46777;SDS011;32536;47.128;8.746;2023-06-24T13:02:08;4.68;;;2.58;;
46777;SDS011;32536;47.128;8.746;2023-06-24T13:04:35;4.57;;;2.22;;
46777;SDS011;32536;47.128;8.746;2023-06-24T13:07:02;4.18;;;2.47;;
46777;SDS011;32536;47.128;8.746;2023-06-24T13:09:29;3.58;;;1.85;;
46777;SDS011;32536;47.128;8.746;2023-06-24T13:11:55;4.57;;;2.17;;
46777;SDS011;32536;47.128;8.746;2023-06-24T13:14:22;4.00;;;1.70;;
46777;SDS011;32536;47.128;8.746;2023-06-24T13:16:51;4.72;;;3.30;;
46777;SDS011;32536;47.128;8.746;2023-06-24T13:19:17;3.65;;;1.65;;
46777;SDS011;32536;47.128;8.746;2023-06-24T13:21:45;3.15;;;1.70;;
46777;SDS011;32536;47.128;8.746;2023-06-24T13:24:12;3.65;;;1.65;;
46777;SDS011;32536;47.128;8.746;2023-06-24T13:26:38;3.60;;;1.38;;
46777;SDS011;32536;47.128;8.746;2023-06-24T13:29:05;3.95;;;1.88;;
46777;SDS011;32536;47.128;8.746;2023-06-24T13:31:33;3.67;;;1.75;;
46777;SDS011;32536;47.128;8.746;2023-06-24T13:34:00;3.85;;;1.50;;
46777;SDS011;32536;47.128;8.746;2023-06-24T13:36:30;4.75;;;2.75;;
46777;SDS011;32536;47.128;8.746;2023-06-24T13:39:03;3.58;;;2.13;;
46777;SDS011;32536;47.128;8.746;2023-06-24T13:41:31;4.00;;;1.77;;
46777;SDS011;32536;47.128;8.746;2023-06-24T13:43:58;3.70;;;1.80;;
46777;SDS011;32536;47.128;8.746;2023-06-24T13:48:57;4.03;;;2.13;;
46777;SDS011;32536;47.128;8.746;2023-06-24T13:51:25;3.80;;;2.08;;
46777;SDS011;32536;47.128;8.746;2023-06-24T13:53:52;4.40;;;2.22;;
46777;SDS011;32536;47.128;8.746;2023-06-24T13:56:23;3.58;;;1.70;;
46777;SDS011;32536;47.128;8.746;2023-06-24T13:58:51;3.30;;;1.67;;
46777;SDS011;32536;47.128;8.746;2023-06-24T14:01:19;3.47;;;1.63;;
46777;SDS011;32536;47.128;8.746;2023-06-24T14:03:46;4.20;;;2.42;;
46777;SDS011;32536;47.128;8.746;2023-06-24T14:06:14;3.80;;;2.17;;
46777;SDS011;32536;47.128;8.746;2023-06-24T14:08:43;4.72;;;2.20;;
46777;SDS011;32536;47.128;8.746;2023-06-24T14:11:11;4.57;;;2.63;;
46777;SDS011;32536;47.128;8.746;2023-06-24T14:13:38;4.72;;;2.35;;
46777;SDS011;32536;47.128;8.746;2023-06-24T14:16:05;5.60;;;3.13;;
46777;SDS011;32536;47.128;8.746;2023-06-24T14:18:32;4.00;;;1.90;;
46777;SDS011;32536;47.128;8.746;2023-06-24T14:21:00;3.67;;;1.50;;
46777;SDS011;32536;47.128;8.746;2023-06-24T14:23:29;3.13;;;1.40;;
46777;SDS011;32536;47.128;8.746;2023-06-24T14:25:57;5.45;;;3.33;;
46777;SDS011;32536;47.128;8.746;2023-06-24T14:28:25;4.55;;;2.13;;
46777;SDS011;32536;47.128;8.746;2023-06-24T14:30:52;4.40;;;2.03;;
46777;SDS011;32536;47.128;8.746;2023-06-24T14:33:19;4.20;;;2.45;;
46777;SDS011;32536;47.128;8.746;2023-06-24T14:35:46;4.50;;;2.63;;
46777;SDS011;32536;47.128;8.746;2023-06-24T14:38:12;4.22;;;2.17;;
46777;SDS011;32536;47.128;8.746;2023-06-24T14:40:39;3.38;;;1.60;;
46777;SDS011;32536;47.128;8.746;2023-06-24T14:43:06;4.00;;;1.90;;
46777;SDS011;32536;47.128;8.746;2023-06-24T14:45:33;3.72;;;1.73;;
46777;SDS011;32536;47.128;8.746;2023-06-24T14:47:59;3.78;;;1.60;;
46777;SDS011;32536;47.128;8.746;2023-06-24T14:50:26;4.18;;;2.05;;
46777;SDS011;32536;47.128;8.746;2023-06-24T14:52:53;3.75;;;1.63;;
46777;SDS011;32536;47.128;8.746;2023-06-24T14:55:19;4.30;;;1.95;;
46777;SDS011;32536;47.128;8.746;2023-06-24T14:57:46;4.78;;;2.20;;
46777;SDS011;32536;47.128;8.746;2023-06-24T15:00:13;6.10;;;2.95;;
46777;SDS011;32536;47.128;8.746;2023-06-24T15:02:40;4.63;;;2.10;;
46777;SDS011;32536;47.128;8.746;2023-06-24T15:05:07;4.18;;;2.45;;
46777;SDS011;32536;47.128;8.746;2023-06-24T15:07:34;4.00;;;1.83;;
46777;SDS011;32536;47.128;8.746;2023-06-24T15:10:04;4.57;;;2.13;;
46777;SDS011;32536;47.128;8.746;2023-06-24T15:12:31;4.45;;;1.92;;
46777;SDS011;32536;47.128;8.746;2023-06-24T15:15:00;4.32;;;1.88;;
46777;SDS011;32536;47.128;8.746;2023-06-24T15:17:27;3.70;;;1.83;;
46777;SDS011;32536;47.128;8.746;2023-06-24T15:19:55;4.10;;;2.17;;
46777;SDS011;32536;47.128;8.746;2023-06-24T15:22:22;2.70;;;1.20;;
46777;SDS011;32536;47.128;8.746;2023-06-24T15:24:49;4.28;;;2.22;;
46777;SDS011;32536;47.128;8.746;2023-06-24T15:27:15;4.53;;;2.22;;